Time;durP1;ratioP1;P1;durP2;ratioP2;P2;SDS_P1;SDS_P2;PMS_P1;PMS_P2;Temp;Humidity;BMP_temperature;BMP_pressure;BME280_temperature;BME280_humidity;BME280_pressure;Samples;Min_cycle;Max_cycle;Signal;HPM_P1;HPM_P2
2021/04/18 00:02:03;;;;;;;6.25;3.42;;;;;;;9.37;46.46;99752.13;4956531;28;20241;-75
2021/04/18 00:04:29;;;;;;;4.32;3.22;;;;;;;9.41;46.33;99742.97;4956139;29;20681;-76
2021/04/18 00:06:55;;;;;;;9.55;3.55;;;;;;;9.30;46.56;99748.00;4956539;29;20625;-75
2021/04/18 00:09:21;;;;;;;3.63;3.13;;;;;;;9.17;46.93;99748.59;4955996;29;20220;-74
2021/04/18 00:11:47;;;;;;;5.25;3.40;;;;;;;9.45;46.53;99743.66;4956337;28;20197;-75
2021/04/18 00:14:14;;;;;;;4.70;2.85;;;;;;;9.65;46.04;99737.25;4956371;28;20273;-75
2021/04/18 00:16:40;;;;;;;5.03;3.40;;;;;;;9.78;45.67;99733.84;4956300;29;20220;-74
2021/04/18 00:19:07;;;;;;;3.35;3.00;;;;;;;9.68;45.93;99729.91;4956505;29;20209;-75
2021/04/18 00:21:33;;;;;;;5.43;3.42;;;;;;;9.42;46.63;99731.25;4956517;28;20238;-75
2021/04/18 00:24:00;;;;;;;3.40;3.10;;;;;;;9.46;46.82;99730.16;4956316;28;20199;-75
2021/04/18 00:26:26;;;;;;;7.30;4.05;;;;;;;9.64;46.45;99728.31;4956264;29;20273;-76
2021/04/18 00:28:52;;;;;;;4.47;3.50;;;;;;;9.59;46.71;99728.56;4956001;29;20246;-73
2021/04/18 00:31:18;;;;;;;4.03;3.63;;;;;;;9.69;46.48;99730.78;4955626;29;20231;-75
2021/04/18 00:33:45;;;;;;;5.15;3.60;;;;;;;9.87;46.10;99720.88;4955681;28;20211;-74
2021/04/18 00:36:12;;;;;;;5.85;3.05;;;;;;;9.92;45.90;99726.84;4956179;28;20701;-76
2021/04/18 00:38:38;;;;;;;4.20;3.45;;;;;;;9.92;45.89;99718.78;4955540;29;20298;-74
2021/04/18 00:41:04;;;;;;;5.95;3.85;;;;;;;9.74;46.25;99724.19;4955952;29;20702;-74
2021/04/18 00:43:31;;;;;;;3.50;2.80;;;;;;;9.63;46.69;99721.19;4956017;28;20685;-75
2021/04/18 00:45:57;;;;;;;4.22;2.80;;;;;;;9.85;46.28;99712.00;4955455;29;20266;-75
2021/04/18 00:48:23;;;;;;;5.03;3.03;;;;;;;9.87;46.10;99712.78;4955876;29;20273;-75
2021/04/18 00:50:49;;;;;;;5.13;3.30;;;;;;;9.81;46.43;99708.59;4955984;29;20220;-74
2021/04/18 00:53:16;;;;;;;3.83;3.53;;;;;;;9.75;46.54;99706.25;4955501;28;20255;-75
2021/04/18 00:55:44;;;;;;;4.85;3.05;;;;;;;9.85;46.33;99707.50;4955400;28;20203;-74
2021/04/18 00:58:11;;;;;;;4.47;3.47;;;;;;;9.76;46.77;99702.59;4955479;28;20222;-76
2021/04/18 01:00:38;;;;;;;5.28;2.92;;;;;;;9.85;46.71;99703.94;4955384;29;20654;-74
2021/04/18 01:03:06;;;;;;;4.43;3.25;;;;;;;9.84;46.56;99702.22;4955134;29;20239;-75
2021/04/18 01:05:32;;;;;;;3.65;3.10;;;;;;;9.76;46.50;99703.47;4955552;29;20195;-75
2021/04/18 01:07:58;;;;;;;6.68;4.25;;;;;;;9.70;46.86;99709.19;4955061;29;20243;-75
2021/04/18 01:10:26;;;;;;;7.10;3.80;;;;;;;9.78;46.50;99704.25;4955523;29;20274;-75
2021/04/18 01:12:52;;;;;;;4.53;3.55;;;;;;;9.89;46.18;99708.22;4955383;28;20319;-75
2021/04/18 01:15:18;;;;;;;7.95;4.60;;;;;;;9.77;46.35;99707.03;4954975;29;20210;-76
2021/04/18 01:17:47;;;;;;;5.53;3.30;;;;;;;9.81;46.36;99709.50;4955264;29;20247;-73
2021/04/18 01:20:16;;;;;;;4.47;3.60;;;;;;;9.90;46.17;99699.19;4954782;29;20282;-74
2021/04/18 01:22:43;;;;;;;5.68;3.55;;;;;;;9.48;47.18;99700.50;4955161;28;20622;-73
2021/04/18 01:25:11;;;;;;;6.10;4.05;;;;;;;9.37;47.74;99704.59;4954729;29;20289;-74
2021/04/18 01:27:40;;;;;;;8.27;4.35;;;;;;;9.62;47.26;99703.34;4954831;29;20280;-75
2021/04/18 01:30:09;;;;;;;6.75;3.30;;;;;;;9.64;47.05;99703.25;4955198;29;20502;-75
2021/04/18 01:32:35;;;;;;;4.15;3.75;;;;;;;9.77;46.91;99697.16;4954726;28;20251;-74
2021/04/18 01:35:02;;;;;;;4.45;4.05;;;;;;;9.82;47.05;99692.38;4954045;28;20206;-76
2021/04/18 01:37:28;;;;;;;3.80;2.90;;;;;;;9.70;47.77;99689.47;4954857;29;20285;-76
2021/04/18 01:39:55;;;;;;;9.63;3.90;;;;;;;9.63;47.88;99698.81;4954834;29;20206;-75
2021/04/18 01:42:22;;;;;;;4.85;3.88;;;;;;;9.46;48.96;99694.34;4954744;29;20216;-74
2021/04/18 01:44:48;;;;;;;5.22;3.72;;;;;;;9.53;48.97;99688.56;4954822;29;20217;-75
2021/04/18 01:47:14;;;;;;;3.58;3.25;;;;;;;9.47;49.11;99694.25;4954628;28;20558;-75
2021/04/18 01:49:41;;;;;;;5.68;3.85;;;;;;;9.33;49.92;99691.41;4954698;29;20292;-75
2021/04/18 01:52:07;;;;;;;3.65;3.35;;;;;;;9.17;50.34;99692.19;4954505;28;20305;-75
2021/04/18 01:54:33;;;;;;;6.10;3.50;;;;;;;9.12;50.33;99683.50;4954735;28;20660;-74
2021/04/18 01:57:00;;;;;;;5.97;4.05;;;;;;;9.05;50.68;99686.59;4954555;28;20226;-75
2021/04/18 01:59:26;;;;;;;8.25;3.90;;;;;;;9.01;50.95;99685.00;4953765;28;20201;-75
2021/04/18 02:01:52;;;;;;;4.45;3.35;;;;;;;8.76;51.99;99689.75;4954278;29;20219;-75
2021/04/18 02:04:23;;;;;;;5.13;3.30;;;;;;;8.67;52.67;99686.66;4954123;28;20256;-75
2021/04/18 02:06:50;;;;;;;6.25;4.25;;;;;;;8.63;52.71;99682.38;4954007;29;20281;-74
2021/04/18 02:09:17;;;;;;;4.38;3.92;;;;;;;8.60;53.01;99678.03;4954507;28;20539;-74
2021/04/18 02:11:43;;;;;;;5.72;4.15;;;;;;;8.70;52.63;99689.19;4954316;29;20189;-75
2021/04/18 02:14:10;;;;;;;3.95;3.25;;;;;;;8.91;51.92;99680.09;4954266;28;20320;-75
2021/04/18 02:16:37;;;;;;;4.30;3.50;;;;;;;8.82;52.41;99682.34;4954239;29;20644;-75
2021/04/18 02:19:04;;;;;;;5.30;3.42;;;;;;;8.86;52.00;99684.78;4954235;28;20264;-72
2021/04/18 02:21:30;;;;;;;5.05;3.80;;;;;;;8.73;52.29;99678.31;4954252;29;20240;-73
2021/04/18 02:23:56;;;;;;;4.68;3.00;;;;;;;8.91;52.00;99677.41;4954069;29;20618;-75
2021/04/18 02:26:22;;;;;;;4.05;2.80;;;;;;;8.90;51.98;99680.16;4953585;29;20280;-74
2021/04/18 02:28:49;;;;;;;5.47;3.20;;;;;;;8.75;52.35;99679.09;4954183;29;20559;-75
2021/04/18 02:31:16;;;;;;;4.95;3.20;;;;;;;8.76;52.15;99679.03;4953358;28;20189;-74
2021/04/18 02:33:42;;;;;;;4.82;3.10;;;;;;;8.76;52.30;99678.16;4953014;29;20296;-75
2021/04/18 02:36:08;;;;;;;3.83;3.50;;;;;;;8.70;52.39;99679.31;4953164;29;20193;-73
2021/04/18 02:38:35;;;;;;;4.07;3.40;;;;;;;8.45;52.72;99674.28;4953336;29;20643;-74
2021/04/18 02:41:01;;;;;;;5.90;3.70;;;;;;;8.52;52.55;99677.53;4953510;29;20276;-74
2021/04/18 02:43:27;;;;;;;5.25;3.45;;;;;;;8.44;52.42;99680.59;4952997;29;20280;-76
2021/04/18 02:45:53;;;;;;;4.82;3.38;;;;;;;8.45;52.62;99674.28;4953465;28;20712;-74
2021/04/18 02:48:20;;;;;;;6.00;3.50;;;;;;;8.64;52.48;99681.44;4957342;28;20288;-74
2021/04/18 02:50:46;;;;;;;4.85;3.10;;;;;;;8.88;51.89;99680.22;4957679;28;20640;-75
2021/04/18 02:53:13;;;;;;;5.20;3.33;;;;;;;8.76;52.19;99678.16;4957543;29;20217;-74
2021/04/18 02:55:39;;;;;;;5.20;3.45;;;;;;;8.96;51.72;99683.41;4957490;28;20314;-74
2021/04/18 02:58:06;;;;;;;6.65;3.67;;;;;;;9.00;51.42;99673.41;4957430;29;20288;-75
2021/04/18 03:00:32;;;;;;;5.25;3.63;;;;;;;8.90;52.20;99678.34;4956946;29;20190;-76
2021/04/18 03:02:58;;;;;;;4.00;3.20;;;;;;;9.03;52.02;99667.00;4957229;28;20230;-74
2021/04/18 03:05:25;;;;;;;4.60;3.20;;;;;;;9.06;52.02;99681.13;4956857;28;20204;-74
2021/04/18 03:07:51;;;;;;;6.35;3.70;;;;;;;9.11;51.26;99673.72;4957336;29;20608;-75
2021/04/18 03:10:18;;;;;;;5.05;3.25;;;;;;;9.10;51.06;99679.16;4957447;28;20264;-76
2021/04/18 03:12:44;;;;;;;4.93;3.10;;;;;;;9.07;50.78;99671.28;4957109;29;20288;-75
2021/04/18 03:15:11;;;;;;;3.45;3.15;;;;;;;9.26;50.51;99679.25;4956944;28;20200;-73
2021/04/18 03:17:38;;;;;;;4.78;3.83;;;;;;;9.28;49.88;99670.16;4956557;28;20277;-74
2021/04/18 03:20:05;;;;;;;9.13;4.30;;;;;;;9.22;49.95;99677.66;4956919;29;20668;-73
2021/04/18 03:22:32;;;;;;;7.13;4.00;;;;;;;9.31;50.17;99680.72;4956851;28;20269;-73
2021/04/18 03:24:59;;;;;;;7.43;4.15;;;;;;;9.34;50.46;99675.22;4956670;29;20197;-75
2021/04/18 03:27:25;;;;;;;5.18;4.65;;;;;;;9.42;49.69;99668.56;4956113;29;20207;-73
2021/04/18 03:29:52;;;;;;;5.25;3.83;;;;;;;9.32;49.79;99658.31;4956611;29;20191;-74
2021/04/18 03:32:18;;;;;;;5.80;3.92;;;;;;;9.21;50.07;99663.38;4956761;29;20242;-73
2021/04/18 03:34:44;;;;;;;5.57;3.90;;;;;;;9.13;50.53;99673.63;4956624;29;20237;-73
2021/04/18 03:37:10;;;;;;;4.05;3.65;;;;;;;8.85;51.72;99672.34;4956844;28;20663;-75
2021/04/18 03:39:37;;;;;;;5.75;4.35;;;;;;;8.54;52.95;99679.19;4956687;28;20190;-76
2021/04/18 03:42:04;;;;;;;5.38;3.63;;;;;;;8.64;53.53;99676.97;4956246;29;20279;-73
2021/04/18 03:44:30;;;;;;;5.80;3.80;;;;;;;8.66;53.37;99677.75;4956617;28;20198;-73
2021/04/18 03:46:56;;;;;;;5.38;3.70;;;;;;;8.80;53.27;99678.88;4956313;29;20558;-76
2021/04/18 03:49:22;;;;;;;5.22;3.65;;;;;;;8.81;53.55;99677.94;4956099;28;20212;-75
2021/04/18 03:51:48;;;;;;;4.28;3.97;;;;;;;9.03;53.33;99672.38;4956428;28;20233;-74
2021/04/18 03:54:15;;;;;;;4.80;3.35;;;;;;;9.06;53.32;99667.69;4956479;29;20241;-73
2021/04/18 03:56:42;;;;;;;5.03;4.00;;;;;;;8.78;54.13;99678.97;4955964;28;20283;-74
2021/04/18 03:59:08;;;;;;;6.57;3.75;;;;;;;8.53;55.24;99681.97;4955776;29;20201;-73
2021/04/18 04:01:34;;;;;;;5.93;3.83;;;;;;;8.69;54.84;99676.72;4956412;28;20320;-75
2021/04/18 04:04:00;;;;;;;5.70;4.25;;;;;;;8.66;54.72;99679.53;4955859;28;20229;-74
2021/04/18 04:06:27;;;;;;;4.80;3.70;;;;;;;8.77;54.54;99675.41;4956198;29;20196;-73
2021/04/18 04:08:53;;;;;;;4.53;3.95;;;;;;;8.93;54.31;99677.31;4956205;28;20204;-74
2021/04/18 04:11:19;;;;;;;5.15;3.97;;;;;;;8.66;55.15;99674.19;4956223;29;20193;-74
2021/04/18 04:13:46;;;;;;;6.45;3.55;;;;;;;8.91;54.75;99680.09;4956335;29;20221;-72
2021/04/18 04:16:12;;;;;;;4.53;3.70;;;;;;;8.59;55.58;99673.59;4956376;28;20196;-72
2021/04/18 04:18:38;;;;;;;5.88;3.85;;;;;;;8.40;56.44;99678.09;4956490;29;20630;-72
2021/04/18 04:21:05;;;;;;;3.85;3.45;;;;;;;8.53;56.17;99672.09;4956227;28;20228;-71
2021/04/18 04:23:31;;;;;;;5.03;3.55;;;;;;;8.80;55.18;99671.69;4956454;28;20271;-72
2021/04/18 04:25:58;;;;;;;5.20;3.50;;;;;;;8.85;54.58;99672.34;4956649;29;20190;-73
2021/04/18 04:28:24;;;;;;;4.30;3.65;;;;;;;8.64;55.55;99676.06;4956524;28;20540;-73
2021/04/18 04:30:51;;;;;;;5.10;4.13;;;;;;;8.81;55.30;99675.25;4956116;28;20190;-73
2021/04/18 04:33:17;;;;;;;5.28;3.90;;;;;;;8.69;55.55;99682.09;4955945;28;20227;-71
2021/04/18 04:35:43;;;;;;;5.20;4.35;;;;;;;8.66;55.95;99679.53;4956353;28;20185;-73
2021/04/18 04:38:10;;;;;;;5.68;3.85;;;;;;;8.51;56.38;99678.50;4956384;29;20193;-73
2021/04/18 04:40:36;;;;;;;5.55;3.97;;;;;;;8.36;57.16;99682.75;4956070;28;20271;-73
2021/04/18 04:43:02;;;;;;;6.22;4.20;;;;;;;8.15;57.75;99690.84;4956238;29;20186;-73
2021/04/18 04:45:28;;;;;;;6.65;3.90;;;;;;;8.50;56.93;99692.84;4955516;29;20190;-73
2021/04/18 04:47:55;;;;;;;5.15;3.70;;;;;;;8.52;56.61;99688.28;4955917;29;20587;-72
2021/04/18 04:50:22;;;;;;;5.25;3.90;;;;;;;8.47;56.89;99691.19;4955857;29;20653;-72
2021/04/18 04:52:48;;;;;;;5.15;4.25;;;;;;;8.42;57.22;99682.47;4955443;28;20304;-73
2021/04/18 04:55:15;;;;;;;5.10;4.22;;;;;;;8.54;56.79;99684.56;4955774;29;20611;-72
2021/04/18 04:57:41;;;;;;;6.07;4.35;;;;;;;8.61;56.51;99689.66;4955960;29;20280;-73
2021/04/18 05:00:09;;;;;;;7.13;4.00;;;;;;;8.72;56.19;99687.31;4955792;28;20231;-74
2021/04/18 05:02:35;;;;;;;7.15;4.70;;;;;;;8.74;55.94;99688.09;4955532;28;20289;-72
2021/04/18 05:05:03;;;;;;;6.88;4.57;;;;;;;8.51;56.81;99686.53;4955742;28;20285;-71
2021/04/18 05:07:29;;;;;;;5.07;4.30;;;;;;;8.56;56.89;99689.88;4955340;29;20195;-73
2021/04/18 05:09:55;;;;;;;4.28;3.88;;;;;;;8.70;56.41;99687.38;4954698;28;20277;-74
2021/04/18 05:12:22;;;;;;;6.70;4.00;;;;;;;8.57;56.44;99694.31;4955604;29;20573;-72
2021/04/18 05:14:48;;;;;;;6.65;3.92;;;;;;;8.87;55.48;99683.88;4955395;28;20284;-72
2021/04/18 05:17:14;;;;;;;7.68;4.25;;;;;;;8.55;56.74;99683.63;4954900;28;20277;-71
2021/04/18 05:19:40;;;;;;;5.65;4.30;;;;;;;8.53;57.03;99685.53;4954915;29;20284;-72
2021/04/18 05:22:07;;;;;;;6.57;4.40;;;;;;;8.74;55.65;99685.41;4954891;29;20225;-72
2021/04/18 05:24:33;;;;;;;6.13;4.57;;;;;;;8.85;55.65;99688.44;4955627;29;20269;-72
2021/04/18 05:26:59;;;;;;;5.45;4.90;;;;;;;8.48;57.19;99692.94;4955109;28;20226;-73
2021/04/18 05:29:26;;;;;;;5.03;3.75;;;;;;;8.60;56.70;99694.16;4954811;28;20288;-73
2021/04/18 05:31:54;;;;;;;4.78;4.15;;;;;;;8.77;56.22;99693.31;4955033;28;20255;-74
2021/04/18 05:34:20;;;;;;;31.20;9.15;;;;;;;8.91;55.50;99700.69;4954990;28;20257;-72
2021/04/18 05:36:46;;;;;;;8.85;4.97;;;;;;;9.01;54.77;99691.22;4954819;28;20205;-73
2021/04/18 05:39:13;;;;;;;6.00;4.72;;;;;;;9.17;54.72;99699.38;4954993;29;20284;-72
2021/04/18 05:41:39;;;;;;;8.15;5.43;;;;;;;9.18;53.73;99696.63;4954857;29;20720;-73
2021/04/18 05:44:07;;;;;;;5.85;4.35;;;;;;;9.26;54.47;99695.38;4954937;28;20686;-73
2021/04/18 05:46:33;;;;;;;8.73;5.22;;;;;;;9.49;52.97;99704.91;4954829;29;20200;-72
2021/04/18 05:48:59;;;;;;;7.38;4.57;;;;;;;9.55;52.80;99697.41;4954498;28;20664;-73
2021/04/18 05:51:26;;;;;;;10.65;6.03;;;;;;;9.66;53.24;99701.38;4955165;28;20229;-73
2021/04/18 05:53:52;;;;;;;7.30;4.88;;;;;;;9.58;53.01;99702.63;4954181;28;20226;-73
2021/04/18 05:56:19;;;;;;;6.38;5.22;;;;;;;9.30;53.81;99711.25;4954669;29;20299;-73
2021/04/18 05:58:48;;;;;;;5.82;4.65;;;;;;;9.39;53.95;99704.53;4954582;28;20569;-72
2021/04/18 06:01:14;;;;;;;8.30;5.05;;;;;;;9.53;53.42;99698.44;4954379;29;20259;-73
2021/04/18 06:03:40;;;;;;;6.85;5.28;;;;;;;9.67;52.76;99703.97;4954739;28;20570;-73
2021/04/18 06:06:06;;;;;;;8.05;5.38;;;;;;;9.93;51.99;99699.88;4954432;29;20638;-74
2021/04/18 06:08:33;;;;;;;8.73;5.65;;;;;;;10.09;51.68;99701.75;4954138;28;20205;-72
2021/04/18 06:10:59;;;;;;;7.60;5.22;;;;;;;10.29;51.00;99704.25;4954336;29;20713;-71
2021/04/18 06:13:26;;;;;;;6.82;5.85;;;;;;;10.05;51.44;99701.03;4954507;29;20218;-72
2021/04/18 06:15:53;;;;;;;8.20;5.60;;;;;;;10.15;51.14;99691.53;4954577;28;20301;-71
2021/04/18 06:18:20;;;;;;;8.30;6.22;;;;;;;10.30;50.76;99702.41;4953857;29;20335;-73
2021/04/18 06:20:48;;;;;;;11.40;6.20;;;;;;;10.54;50.24;99705.59;4954236;28;20200;-71
2021/04/18 06:23:14;;;;;;;7.68;5.95;;;;;;;10.20;50.77;99700.22;4954042;28;20197;-71
2021/04/18 06:25:40;;;;;;;7.22;5.72;;;;;;;10.25;50.37;99697.25;4954621;29;20199;-73
2021/04/18 06:28:06;;;;;;;11.50;6.82;;;;;;;9.87;51.50;99700.22;4954277;29;20250;-74
2021/04/18 06:30:33;;;;;;;8.77;7.15;;;;;;;10.22;50.98;99711.75;4954589;29;20283;-71
2021/04/18 06:32:59;;;;;;;8.10;6.18;;;;;;;10.43;50.37;99715.09;4953987;28;20310;-73
2021/04/18 06:35:26;;;;;;;8.73;6.97;;;;;;;10.93;49.00;99709.66;4953903;28;20195;-73
2021/04/18 06:37:52;;;;;;;7.07;6.38;;;;;;;11.03;48.75;99714.41;4954391;28;20605;-73
2021/04/18 06:40:18;;;;;;;7.97;6.75;;;;;;;11.08;48.65;99714.16;4954070;28;20288;-73
2021/04/18 06:42:45;;;;;;;10.80;6.15;;;;;;;11.30;48.05;99710.16;4946328;29;20193;-73
2021/04/18 06:45:12;;;;;;;10.25;7.72;;;;;;;11.11;47.92;99710.41;4954261;29;20280;-73
2021/04/18 06:47:39;;;;;;;8.05;7.07;;;;;;;11.03;48.18;99717.09;4953585;29;20283;-73
2021/04/18 06:50:07;;;;;;;13.32;7.00;;;;;;;11.26;47.82;99712.16;4954283;28;20195;-73
2021/04/18 06:52:34;;;;;;;9.68;6.63;;;;;;;11.13;48.25;99712.03;4953348;28;20287;-73
2021/04/18 06:55:00;;;;;;;9.70;7.30;;;;;;;10.41;49.16;99716.16;4954069;28;20204;-71
2021/04/18 06:57:26;;;;;;;10.05;7.90;;;;;;;9.98;50.67;99718.47;4953849;29;20200;-73
2021/04/18 06:59:52;;;;;;;10.00;7.50;;;;;;;10.22;50.19;99711.75;4953756;28;20291;-73
2021/04/18 07:02:26;;;;;;;9.27;8.38;;;;;;;10.33;49.98;99713.88;4954048;28;20259;-72
2021/04/18 07:04:58;;;;;;;12.27;7.85;;;;;;;10.68;48.85;99719.13;4954049;29;20192;-72
2021/04/18 07:07:29;;;;;;;17.65;7.82;;;;;;;10.76;48.90;99713.28;4954113;29;20203;-71
2021/04/18 07:09:55;;;;;;;9.15;7.45;;;;;;;10.69;48.76;99717.28;4954124;28;20274;-71
2021/04/18 07:12:27;;;;;;;10.52;8.30;;;;;;;10.80;48.62;99720.25;4954508;29;20193;-71
2021/04/18 07:14:54;;;;;;;11.48;8.52;;;;;;;11.13;47.63;99720.13;4954505;29;20244;-70
2021/04/18 07:17:20;;;;;;;9.18;7.53;;;;;;;11.29;46.96;99714.69;4954293;29;20232;-70
2021/04/18 07:19:49;;;;;;;12.13;8.18;;;;;;;11.40;47.04;99714.06;4954317;29;20220;-71
2021/04/18 07:22:17;;;;;;;12.88;8.48;;;;;;;11.14;47.32;99715.59;4954233;29;20197;-71
2021/04/18 07:24:50;;;;;;;14.65;7.75;;;;;;;11.13;47.72;99706.66;4954326;28;20594;-71
2021/04/18 07:27:17;;;;;;;10.30;8.25;;;;;;;11.27;47.27;99704.00;4954345;29;20251;-71
2021/04/18 07:29:51;;;;;;;14.57;8.23;;;;;;;11.25;47.48;99705.91;4954851;28;20304;-71
2021/04/18 07:32:19;;;;;;;12.50;9.40;;;;;;;11.25;47.58;99707.75;4955012;28;20231;-70
2021/04/18 07:34:45;;;;;;;13.68;10.07;;;;;;;11.21;47.39;99703.50;4957986;28;20181;-72
2021/04/18 07:37:13;;;;;;;10.40;8.75;;;;;;;11.83;45.87;99706.06;4957707;29;20235;-68
2021/04/18 07:39:45;;;;;;;14.43;9.70;;;;;;;11.99;45.63;99706.03;4957632;29;20240;-68
2021/04/18 07:42:26;;;;;;;10.48;7.75;;;;;;;12.09;45.24;99707.16;4958004;29;20700;-70
2021/04/18 07:44:55;;;;;;;14.13;9.38;;;;;;;11.92;45.50;99704.63;4957777;29;20272;-71
2021/04/18 07:47:21;;;;;;;12.73;9.43;;;;;;;11.45;46.84;99706.56;4957402;29;20236;-71
2021/04/18 07:49:48;;;;;;;10.73;9.25;;;;;;;12.04;45.69;99706.59;4957880;28;20216;-70
2021/04/18 07:52:17;;;;;;;14.30;10.00;;;;;;;12.02;45.70;99706.69;4957451;29;20203;-71
2021/04/18 07:54:44;;;;;;;13.00;9.57;;;;;;;12.51;44.60;99702.72;4956788;28;20216;-71
2021/04/18 07:57:10;;;;;;;13.10;9.93;;;;;;;12.63;44.57;99701.91;4957445;29;20276;-70
2021/04/18 07:59:37;;;;;;;13.77;9.60;;;;;;;12.72;44.38;99701.31;4956700;29;20261;-71
2021/04/18 08:02:04;;;;;;;14.73;9.45;;;;;;;12.06;45.85;99707.38;4957211;29;20217;-71
2021/04/18 08:04:31;;;;;;;19.13;9.85;;;;;;;12.25;45.38;99705.22;4956308;29;20247;-71
2021/04/18 08:07:00;;;;;;;12.55;9.32;;;;;;;12.15;45.90;99696.00;4957141;29;20191;-70
2021/04/18 08:09:26;;;;;;;13.98;10.00;;;;;;;12.16;46.05;99703.13;4957127;29;20619;-69
2021/04/18 08:12:13;;;;;;;11.52;10.10;;;;;;;12.50;45.78;99698.25;4956686;28;20300;-70
2021/04/18 08:14:41;;;;;;;12.50;10.05;;;;;;;12.49;45.65;99700.09;4956267;29;20223;-69
2021/04/18 08:17:09;;;;;;;14.88;10.27;;;;;;;12.36;46.16;99701.84;4956721;28;20193;-71
2021/04/18 08:19:37;;;;;;;15.25;10.35;;;;;;;12.37;46.29;99700.00;4956055;29;20264;-71
2021/04/18 08:22:04;;;;;;;13.93;10.40;;;;;;;12.04;47.16;99703.91;4956291;28;20277;-70
2021/04/18 08:24:32;;;;;;;18.02;11.55;;;;;;;11.91;47.52;99692.13;4956485;29;20205;-70
2021/04/18 08:27:00;;;;;;;15.13;11.48;;;;;;;11.68;48.39;99687.16;4956310;29;20226;-70
2021/04/18 08:29:27;;;;;;;18.23;11.05;;;;;;;12.10;47.30;99688.19;4955800;28;20189;-71
2021/04/18 08:32:03;;;;;;;16.40;11.07;;;;;;;12.43;47.02;99697.78;4955718;29;20271;-70
2021/04/18 08:34:31;;;;;;;17.83;11.52;;;;;;;12.25;47.12;99694.44;4956247;29;20693;-69
2021/04/18 08:36:59;;;;;;;14.07;10.93;;;;;;;12.65;46.27;99694.56;4956003;28;20650;-71
2021/04/18 08:39:32;;;;;;;14.18;10.82;;;;;;;12.72;46.18;99695.91;4955975;29;20192;-71
2021/04/18 08:41:59;;;;;;;15.80;11.05;;;;;;;12.08;48.05;99691.94;4955690;29;20231;-71
2021/04/18 08:44:28;;;;;;;13.57;11.32;;;;;;;11.81;49.16;99687.28;4954431;28;20204;-70
2021/04/18 08:46:56;;;;;;;15.25;11.30;;;;;;;11.71;49.57;99694.19;4955537;29;20189;-73
2021/04/18 08:49:27;;;;;;;18.33;11.27;;;;;;;11.82;49.62;99685.44;4955956;29;20239;-71
2021/04/18 08:51:54;;;;;;;12.90;10.13;;;;;;;12.31;48.67;99696.75;4954887;29;20303;-72
2021/04/18 08:54:24;;;;;;;13.52;11.35;;;;;;;12.37;48.71;99697.31;4955216;28;20296;-70
2021/04/18 08:56:52;;;;;;;15.90;11.48;;;;;;;12.18;49.32;99694.94;4955374;28;20276;-73
2021/04/18 08:59:20;;;;;;;15.93;11.18;;;;;;;12.17;49.47;99704.00;4947822;29;20614;-72
2021/04/18 09:02:03;;;;;;;15.35;10.82;;;;;;;12.05;49.78;99695.72;4955733;29;20288;-71
2021/04/18 09:04:32;;;;;;;16.00;11.48;;;;;;;11.84;50.56;99697.00;4953577;28;20382;-72
2021/04/18 09:06:59;;;;;;;16.70;10.48;;;;;;;11.85;50.97;99701.47;4955401;29;20320;-71
2021/04/18 09:09:26;;;;;;;14.13;10.68;;;;;;;11.74;51.56;99701.25;4954831;29;20295;-70
2021/04/18 09:11:52;;;;;;;13.45;9.85;;;;;;;11.63;52.46;99700.06;4955109;28;20437;-71
2021/04/18 09:14:25;;;;;;;12.82;10.00;;;;;;;11.66;52.73;99716.03;4955086;28;20587;-70
2021/04/18 09:16:51;;;;;;;12.18;10.10;;;;;;;11.38;53.98;99719.53;4954591;29;20281;-70
2021/04/18 09:19:39;;;;;;;12.43;9.45;;;;;;;11.11;55.39;99713.97;4954824;29;20283;-70
2021/04/18 09:22:08;;;;;;;13.48;9.10;;;;;;;11.26;56.35;99718.44;4955025;29;20198;-71
2021/04/18 09:24:44;;;;;;;12.15;9.52;;;;;;;11.03;57.93;99724.31;4947515;29;20226;-72
2021/04/18 09:27:14;;;;;;;13.38;9.48;;;;;;;11.31;57.61;99728.09;4954612;28;20542;-71
2021/04/18 09:29:43;;;;;;;12.25;9.38;;;;;;;11.50;57.80;99727.88;4954772;29;20563;-71
2021/04/18 09:32:12;;;;;;;13.88;9.30;;;;;;;11.41;58.03;99730.13;4954770;29;20524;-70
2021/04/18 09:34:40;;;;;;;14.80;9.30;;;;;;;11.10;58.48;99730.19;4947989;29;20209;-71
2021/04/18 09:37:09;;;;;;;13.57;10.40;;;;;;;10.81;60.07;99735.47;4955009;29;21040;-71
2021/04/18 09:39:37;;;;;;;11.93;8.98;;;;;;;10.53;60.43;99730.75;4954549;29;20193;-69
2021/04/18 09:42:06;;;;;;;12.32;9.02;;;;;;;10.77;60.54;99729.38;4954894;29;20283;-72
2021/04/18 09:44:37;;;;;;;14.93;10.23;;;;;;;10.76;61.15;99741.13;4954103;28;20223;-70
2021/04/18 09:47:06;;;;;;;12.23;10.05;;;;;;;10.92;60.77;99730.34;4954577;29;20205;-70
2021/04/18 09:49:49;;;;;;;13.32;10.65;;;;;;;11.23;60.72;99733.91;4954039;29;20255;-71
2021/04/18 09:52:37;;;;;;;16.55;11.40;;;;;;;11.32;60.90;99740.59;4950290;29;20239;-71
2021/04/18 09:55:11;;;;;;;13.15;10.55;;;;;;;10.96;60.80;99734.56;4947821;28;20263;-71
2021/04/18 09:57:48;;;;;;;16.25;12.23;;;;;;;10.76;61.32;99729.44;4954080;28;20587;-72
2021/04/18 10:00:18;;;;;;;15.07;10.77;;;;;;;10.80;60.56;99733.72;4954150;28;20192;-70
2021/04/18 10:03:05;;;;;;;15.95;12.23;;;;;;;10.88;61.25;99734.16;4954252;29;20563;-70
2021/04/18 10:05:34;;;;;;;16.88;11.52;;;;;;;11.05;60.50;99736.72;4954290;28;20203;-71
2021/04/18 10:08:22;;;;;;;18.35;11.45;;;;;;;11.09;60.90;99734.72;4954109;29;20259;-70
2021/04/18 10:10:50;;;;;;;13.82;11.00;;;;;;;10.83;61.69;99741.59;4954060;29;20196;-72
2021/04/18 10:13:34;;;;;;;16.00;12.13;;;;;;;10.82;63.17;99742.56;4953958;28;20220;-72
2021/04/18 10:16:04;;;;;;;15.55;12.45;;;;;;;10.88;64.09;99742.22;4954372;29;20608;-70
2021/04/18 10:18:35;;;;;;;16.45;11.48;;;;;;;11.09;63.42;99745.50;4953745;29;20207;-71
2021/04/18 10:21:19;;;;;;;15.80;12.00;;;;;;;11.21;62.72;99741.22;4946167;29;20196;-71
2021/04/18 10:23:47;;;;;;;15.18;13.02;;;;;;;11.23;63.49;99736.63;4953239;29;20252;-71
2021/04/18 10:26:19;;;;;;;16.48;12.18;;;;;;;11.55;63.69;99740.09;4954117;29;20519;-72
2021/04/18 10:28:45;;;;;;;21.38;11.55;;;;;;;11.09;63.87;99741.97;4953376;29;20339;-71
2021/04/18 10:31:12;;;;;;;16.30;12.60;;;;;;;10.86;62.74;99741.44;4953534;29;20213;-70
2021/04/18 10:33:38;;;;;;;17.60;12.80;;;;;;;10.67;64.39;99752.38;4953799;29;20637;-72
2021/04/18 10:36:06;;;;;;;16.05;12.45;;;;;;;10.89;63.74;99743.97;4953467;28;20232;-70
2021/04/18 10:38:33;;;;;;;16.95;11.75;;;;;;;11.27;63.13;99740.88;4954054;28;20214;-71
2021/04/18 10:40:59;;;;;;;16.20;12.18;;;;;;;11.27;63.78;99738.19;4953186;29;20259;-70
2021/04/18 10:43:25;;;;;;;16.80;12.80;;;;;;;11.10;65.56;99736.44;4953929;28;20201;-71
2021/04/18 10:45:55;;;;;;;17.63;13.35;;;;;;;11.14;65.12;99737.16;4953468;29;20603;-70
2021/04/18 10:48:21;;;;;;;16.00;12.95;;;;;;;11.41;64.31;99729.28;4953825;29;20670;-70
2021/04/18 10:50:48;;;;;;;16.90;12.88;;;;;;;11.03;66.73;99733.28;4953680;28;20702;-72
2021/04/18 10:53:14;;;;;;;17.30;13.05;;;;;;;11.01;63.68;99732.50;4945722;29;20213;-71
2021/04/18 10:55:42;;;;;;;18.42;13.02;;;;;;;11.10;64.87;99733.75;4953460;29;20196;-72
2021/04/18 10:58:09;;;;;;;18.20;13.20;;;;;;;11.15;64.05;99731.69;4953450;28;20200;-71
2021/04/18 11:00:35;;;;;;;18.25;12.40;;;;;;;11.41;61.83;99731.97;4954550;29;20197;-70
2021/04/18 11:03:04;;;;;;;16.67;12.07;;;;;;;11.88;61.24;99726.44;4954788;29;20524;-72
2021/04/18 11:05:31;;;;;;;16.25;11.90;;;;;;;12.55;59.88;99725.88;4953882;29;20197;-72
2021/04/18 11:07:57;;;;;;;20.98;15.85;;;;;;;12.88;58.73;99728.19;4956068;28;20184;-71
2021/04/18 11:10:23;;;;;;;22.02;13.15;;;;;;;13.33;58.98;99725.28;4958098;29;20205;-72
2021/04/18 11:12:50;;;;;;;16.67;12.65;;;;;;;13.54;56.37;99720.22;4956788;28;20603;-71
2021/04/18 11:15:16;;;;;;;17.70;12.45;;;;;;;13.39;57.07;99711.34;4956883;29;20241;-71
2021/04/18 11:17:42;;;;;;;19.80;12.38;;;;;;;13.29;55.93;99719.19;4957709;28;20209;-70
2021/04/18 11:20:18;;;;;;;17.92;13.70;;;;;;;12.90;59.12;99718.16;4957388;28;20201;-69
2021/04/18 11:22:44;;;;;;;21.90;12.13;;;;;;;12.91;57.09;99729.81;4956954;29;20321;-70
2021/04/18 11:25:12;;;;;;;18.80;12.65;;;;;;;12.33;59.31;99723.66;4957915;28;20204;-71
2021/04/18 11:27:40;;;;;;;18.98;12.77;;;;;;;12.95;58.08;99717.84;4957228;29;20208;-70
2021/04/18 11:30:10;;;;;;;14.70;11.65;;;;;;;12.86;57.20;99721.16;4957474;28;20201;-71
2021/04/18 11:32:37;;;;;;;19.33;12.30;;;;;;;13.01;56.53;99712.03;4957518;28;20314;-71
2021/04/18 11:35:04;;;;;;;16.20;12.82;;;;;;;12.62;58.09;99719.09;4957826;29;20228;-70